createdAt,value
2019-04-21T00:01:48.768Z,9.40
2019-04-21T00:04:24.575Z,9.15
2019-04-21T00:07:06.131Z,8.68
2019-04-21T00:09:41.030Z,9.48
2019-04-21T00:12:02.581Z,9.60
2019-04-21T00:14:22.128Z,9.38
2019-04-21T00:16:50.345Z,9.75
2019-04-21T00:19:39.194Z,8.75
2019-04-21T00:22:23.697Z,9.05
2019-04-21T00:24:54.336Z,8.85
2019-04-21T00:27:26.525Z,9.33
2019-04-21T00:29:58.754Z,9.25
2019-04-21T00:32:22.196Z,9.13
2019-04-21T00:34:34.372Z,9.40
2019-04-21T00:37:12.107Z,8.85
2019-04-21T00:42:18.211Z,8.68
2019-04-21T00:44:39.978Z,8.73
2019-04-21T00:47:17.516Z,8.73
2019-04-21T00:49:53.897Z,8.75
2019-04-21T00:52:40.834Z,8.90
2019-04-21T00:55:11.014Z,8.45
2019-04-21T00:57:29.373Z,9.48
2019-04-21T00:59:52.559Z,8.58
2019-04-21T01:02:18.034Z,8.63
2019-04-21T01:05:00.045Z,8.75
2019-04-21T01:07:30.490Z,8.78
2019-04-21T01:09:51.398Z,9.17
2019-04-21T01:12:33.336Z,9.00
2019-04-21T01:15:05.766Z,7.80
2019-04-21T01:17:27.651Z,8.87
2019-04-21T01:19:50.727Z,9.45
2019-04-21T01:22:04.698Z,8.63
2019-04-21T01:24:38.305Z,9.95
2019-04-21T01:27:10.079Z,9.30
2019-04-21T01:29:55.170Z,8.90
2019-04-21T01:32:28.336Z,9.13
2019-04-21T01:34:45.570Z,9.60
2019-04-21T01:37:14.545Z,8.95
2019-04-21T01:39:47.534Z,8.78
2019-04-21T01:42:15.785Z,8.63
2019-04-21T01:45:00.012Z,8.83
2019-04-21T01:47:06.064Z,9.07
2019-04-21T01:49:29.541Z,9.00
2019-04-21T01:52:19.145Z,8.58
2019-04-21T01:55:10.839Z,9.55
2019-04-21T01:57:55.317Z,9.45
2019-04-21T02:00:22.609Z,8.98
2019-04-21T02:02:59.547Z,9.48
2019-04-21T02:05:32.697Z,9.55
2019-04-21T02:07:55.220Z,9.15
2019-04-21T02:10:28.476Z,9.63
2019-04-21T02:12:50.959Z,10.45
2019-04-21T02:15:31.222Z,10.03
2019-04-21T02:17:46.982Z,10.35
2019-04-21T02:20:11.976Z,9.63
2019-04-21T02:23:07.284Z,9.85
2019-04-21T02:25:36.889Z,10.15
2019-04-21T02:27:42.684Z,10.05
2019-04-21T02:30:21.841Z,9.98
2019-04-21T02:32:58.771Z,10.65
2019-04-21T02:35:38.441Z,9.88
2019-04-21T02:37:55.523Z,10.68
2019-04-21T02:40:35.701Z,10.55
2019-04-21T02:42:56.054Z,10.25
2019-04-21T02:45:23.198Z,10.35
2019-04-21T02:47:57.239Z,10.82
2019-04-21T02:52:53.362Z,9.70
2019-04-21T02:55:17.633Z,10.18
2019-04-21T02:57:52.039Z,10.60
2019-04-21T03:08:27.925Z,9.90
2019-04-21T03:10:49.108Z,9.57
2019-04-21T03:13:08.900Z,11.20
2019-04-21T03:18:04.950Z,10.28
2019-04-21T03:20:33.592Z,10.90
2019-04-21T03:23:02.079Z,10.55
2019-04-21T03:30:45.038Z,10.45
2019-04-21T03:33:52.925Z,10.82
2019-04-21T03:38:08.032Z,9.93
2019-04-21T03:40:37.896Z,10.75
2019-04-21T03:43:07.904Z,11.68
2019-04-21T03:45:44.462Z,10.63
2019-04-21T03:48:04.794Z,10.55
2019-04-21T03:50:45.467Z,11.03
2019-04-21T03:53:02.744Z,11.25
2019-04-21T04:11:38.157Z,10.90
2019-04-21T04:21:41.942Z,10.68
2019-04-21T04:24:13.294Z,10.35
2019-04-21T04:28:58.076Z,11.88
2019-04-21T04:36:38.862Z,11.10
2019-04-21T04:39:26.015Z,12.03
2019-04-21T04:42:21.684Z,10.93
2019-04-21T04:44:57.589Z,11.43
2019-04-21T04:47:15.267Z,10.93
2019-04-21T04:49:43.503Z,11.97
2019-04-21T04:52:31.735Z,10.88
2019-04-21T04:54:49.261Z,11.28
2019-04-21T04:57:08.155Z,11.73
2019-04-21T05:02:11.618Z,12.00
2019-04-21T05:04:39.747Z,12.15
2019-04-21T05:06:58.336Z,11.03
2019-04-21T05:14:35.472Z,12.07
2019-04-21T05:19:39.042Z,11.45
2019-04-21T05:21:54.705Z,11.65
2019-04-21T05:24:16.557Z,11.85
2019-04-21T05:26:43.235Z,10.98
2019-04-21T05:29:10.585Z,12.53
2019-04-21T05:32:07.604Z,11.73
2019-04-21T05:34:36.021Z,11.75
2019-04-21T05:39:50.838Z,11.43
2019-04-21T05:42:10.686Z,11.45
2019-04-21T05:45:00.197Z,12.05
2019-04-21T05:47:27.509Z,12.05
2019-04-21T05:49:56.121Z,12.07
2019-04-21T05:52:19.875Z,11.85
2019-04-21T05:54:57.443Z,12.93
2019-04-21T05:57:25.410Z,12.70
2019-04-21T06:00:12.478Z,11.68
2019-04-21T06:05:09.346Z,20.48
2019-04-21T06:09:52.546Z,12.03
2019-04-21T06:12:14.773Z,11.90
2019-04-21T06:14:49.527Z,11.83
2019-04-21T06:17:19.291Z,11.75
2019-04-21T06:22:11.980Z,11.03
2019-04-21T06:24:43.777Z,12.15
2019-04-21T06:27:08.173Z,11.00
2019-04-21T06:29:38.349Z,11.22
2019-04-21T06:32:22.023Z,10.60
2019-04-21T06:34:49.331Z,11.10
2019-04-21T06:37:21.500Z,10.55
2019-04-21T06:39:59.112Z,9.78
2019-04-21T06:42:05.318Z,10.08
2019-04-21T06:44:38.900Z,9.68
2019-04-21T06:47:06.352Z,9.55
2019-04-21T06:49:30.386Z,9.35
2019-04-21T06:52:07.266Z,9.65
2019-04-21T06:54:35.527Z,9.45
2019-04-21T06:56:58.440Z,10.00
2019-04-21T06:59:29.950Z,9.98
2019-04-21T07:02:05.272Z,10.35
2019-04-21T07:06:56.265Z,10.65
2019-04-21T07:09:31.422Z,10.55
2019-04-21T07:11:49.123Z,9.85
2019-04-21T07:14:29.351Z,9.13
2019-04-21T07:16:50.984Z,8.35
2019-04-21T07:19:23.762Z,8.38
2019-04-21T07:21:48.069Z,7.72
2019-04-21T07:24:14.252Z,8.60
2019-04-21T07:26:42.711Z,8.60
2019-04-21T07:29:09.053Z,9.33
2019-04-21T07:31:40.409Z,8.90
2019-04-21T07:34:07.773Z,9.28
2019-04-21T07:39:01.911Z,8.10
2019-04-21T07:41:27.715Z,7.90
2019-04-21T07:43:57.573Z,7.90
2019-04-21T07:46:23.765Z,7.60
2019-04-21T07:48:59.887Z,6.80
2019-04-21T07:51:54.904Z,7.20
2019-04-21T07:54:18.376Z,6.35
2019-04-21T07:56:30.886Z,6.62
2019-04-21T07:59:18.866Z,6.62
2019-04-21T08:01:46.896Z,6.67
2019-04-21T08:04:33.260Z,6.53
2019-04-21T08:06:40.574Z,5.80
2019-04-21T08:09:08.836Z,5.87
2019-04-21T08:11:31.589Z,5.47
2019-04-21T08:14:24.361Z,5.62
2019-04-21T08:16:39.741Z,5.00
2019-04-21T08:19:09.616Z,5.60
2019-04-21T08:21:35.645Z,5.33
2019-04-21T08:24:00.283Z,5.05
2019-04-21T08:26:34.539Z,5.20
2019-04-21T08:29:04.368Z,5.12
2019-04-21T08:31:32.261Z,4.70
2019-04-21T08:34:01.970Z,4.95
2019-04-21T08:36:28.080Z,4.60
2019-04-21T08:38:57.040Z,4.53
2019-04-21T08:41:18.372Z,5.75
2019-04-21T08:44:01.649Z,4.30
2019-04-21T08:46:20.264Z,4.55
2019-04-21T08:48:52.599Z,4.28
2019-04-21T08:51:27.498Z,4.42
2019-04-21T08:53:49.033Z,4.33
2019-04-21T08:56:25.438Z,4.95
2019-04-21T08:58:59.207Z,4.65
2019-04-21T09:01:50.337Z,4.85
2019-04-21T09:04:18.608Z,5.05
2019-04-21T09:09:16.813Z,6.35
2019-04-21T09:11:46.201Z,5.20
2019-04-21T09:14:13.164Z,5.30
2019-04-21T09:16:35.432Z,5.62
2019-04-21T09:19:04.509Z,5.70
2019-04-21T09:21:37.462Z,6.30
2019-04-21T09:30:15.246Z,5.53
2019-04-21T09:36:04.330Z,5.97
2019-04-21T09:38:45.731Z,6.03
2019-04-21T09:44:35.050Z,5.08
2019-04-21T09:50:15.182Z,5.22
2019-04-21T09:56:04.906Z,4.87
2019-04-21T10:01:58.896Z,4.55
2019-04-21T10:04:23.081Z,4.95
2019-04-21T10:10:27.508Z,5.03
2019-04-21T10:13:08.452Z,4.80
2019-04-21T10:16:03.010Z,5.28
2019-04-21T10:18:48.131Z,4.83
2019-04-21T10:24:34.066Z,4.95
2019-04-21T10:27:14.727Z,4.15
2019-04-21T10:39:09.410Z,4.12
2019-04-21T10:44:55.164Z,4.53
2019-04-21T10:50:41.154Z,4.75
2019-04-21T10:56:32.603Z,4.87
2019-04-21T11:05:27.462Z,4.50
2019-04-21T11:11:14.158Z,5.00
2019-04-21T11:16:58.560Z,5.12
2019-04-21T11:22:38.868Z,5.50
2019-04-21T11:28:11.199Z,4.90
2019-04-21T11:30:39.637Z,4.95
2019-04-21T11:33:15.253Z,5.40
2019-04-21T11:42:01.999Z,4.35
2019-04-21T11:44:58.300Z,4.85
2019-04-21T11:47:40.742Z,4.72
2019-04-21T11:56:21.408Z,4.90
2019-04-21T12:05:29.813Z,5.15
2019-04-21T12:11:15.891Z,4.45
2019-04-21T12:16:48.821Z,4.83
2019-04-21T12:22:35.700Z,4.58
2019-04-21T12:25:29.190Z,4.50
2019-04-21T12:31:51.716Z,5.25
2019-04-21T12:40:30.683Z,4.45
2019-04-21T12:43:06.876Z,4.80
2019-04-21T12:48:52.026Z,4.58
2019-04-21T12:54:38.023Z,4.55
2019-04-21T13:00:20.758Z,4.67
2019-04-21T13:06:05.765Z,4.40
2019-04-21T13:11:53.069Z,4.10
2019-04-21T13:17:39.432Z,5.08
2019-04-21T13:20:29.504Z,4.67
2019-04-21T13:26:04.951Z,4.90
2019-04-21T13:35:01.199Z,4.67
2019-04-21T13:37:31.493Z,5.20
2019-04-21T13:40:49.938Z,5.05
2019-04-21T13:46:20.689Z,4.58
2019-04-21T13:49:05.235Z,4.42
2019-04-21T13:52:02.647Z,4.40
2019-04-21T13:57:34.607Z,4.40
2019-04-21T14:00:05.688Z,4.80
2019-04-21T14:05:01.243Z,4.92
2019-04-21T14:07:30.613Z,4.12
2019-04-21T14:10:03.360Z,4.45
2019-04-21T14:12:32.836Z,4.92
2019-04-21T14:15:02.368Z,4.55
2019-04-21T14:17:32.936Z,5.17
2019-04-21T14:20:03.493Z,5.33
2019-04-21T14:22:38.077Z,4.67
2019-04-21T14:25:07.964Z,4.42
2019-04-21T14:27:36.528Z,5.20
2019-04-21T14:30:05.372Z,4.60
2019-04-21T14:32:33.940Z,4.22
2019-04-21T14:35:03.089Z,4.55
2019-04-21T14:37:31.134Z,4.75
2019-04-21T14:40:06.954Z,4.37
2019-04-21T14:42:28.215Z,4.15
2019-04-21T14:44:56.878Z,4.75
2019-04-21T14:47:33.366Z,5.00
2019-04-21T14:50:24.390Z,4.72
2019-04-21T14:53:13.986Z,4.87
2019-04-21T14:55:45.735Z,5.12
2019-04-21T15:00:51.412Z,4.33
2019-04-21T15:03:27.712Z,4.28
2019-04-21T15:05:55.744Z,4.95
2019-04-21T15:08:25.076Z,4.83
2019-04-21T15:10:54.818Z,5.22
2019-04-21T15:13:21.859Z,4.87
2019-04-21T15:15:54.186Z,4.08
2019-04-21T15:18:22.964Z,4.70
2019-04-21T15:20:51.192Z,5.03
2019-04-21T15:23:24.463Z,5.78
2019-04-21T15:25:50.258Z,4.45
2019-04-21T15:28:18.045Z,5.10
2019-04-21T15:30:47.052Z,4.67
2019-04-21T15:33:16.360Z,4.47
2019-04-21T15:35:46.936Z,3.98
2019-04-21T15:38:14.063Z,4.40
2019-04-21T15:40:50.542Z,4.70
2019-04-21T15:43:11.088Z,4.50
2019-04-21T15:45:40.877Z,5.10
2019-04-21T15:48:11.902Z,4.83
2019-04-21T15:50:41.996Z,4.97
2019-04-21T15:53:13.783Z,4.70
2019-04-21T15:58:42.879Z,4.10
2019-04-21T16:01:18.883Z,4.42
2019-04-21T16:04:02.105Z,4.95
2019-04-21T16:06:32.071Z,4.65
2019-04-21T16:09:04.347Z,4.70
2019-04-21T16:11:31.607Z,4.35
2019-04-21T16:14:01.731Z,4.92
2019-04-21T16:16:30.489Z,4.55
2019-04-21T16:18:58.578Z,4.75
2019-04-21T16:21:27.512Z,4.35
2019-04-21T16:23:58.297Z,4.35
2019-04-21T16:26:26.893Z,4.73
2019-04-21T16:28:55.393Z,4.70
2019-04-21T16:31:24.754Z,4.75
2019-04-21T16:33:52.873Z,4.95
2019-04-21T16:36:21.414Z,7.53
2019-04-21T16:38:51.474Z,5.40
2019-04-21T16:41:20.361Z,5.33
2019-04-21T16:43:49.263Z,5.10
2019-04-21T16:46:17.901Z,5.30
2019-04-21T16:48:46.863Z,4.40
2019-04-21T16:51:15.626Z,4.80
2019-04-21T16:53:50.406Z,4.53
2019-04-21T16:56:24.721Z,4.00
2019-04-21T16:58:58.902Z,4.05
2019-04-21T17:01:30.188Z,4.55
2019-04-21T17:03:58.309Z,4.77
2019-04-21T17:06:27.024Z,4.53
2019-04-21T17:08:54.712Z,4.17
2019-04-21T17:13:51.947Z,4.15
2019-04-21T17:16:21.018Z,4.15
2019-04-21T17:18:59.473Z,4.07
2019-04-21T17:21:17.284Z,3.62
2019-04-21T17:23:46.396Z,3.75
2019-04-21T17:26:15.214Z,3.87
2019-04-21T17:28:42.941Z,4.20
2019-04-21T17:31:12.819Z,3.72
2019-04-21T17:33:41.289Z,3.52
2019-04-21T17:36:09.227Z,3.75
2019-04-21T17:38:37.099Z,3.52
2019-04-21T17:41:19.339Z,3.25
2019-04-21T17:43:34.291Z,3.35
2019-04-21T17:46:02.888Z,3.62
2019-04-21T17:48:32.456Z,3.58
2019-04-21T17:51:09.601Z,3.37
2019-04-21T17:54:00.712Z,3.05
2019-04-21T17:56:53.777Z,3.30
2019-04-21T17:59:25.047Z,3.50
2019-04-21T18:01:45.629Z,3.72
2019-04-21T18:04:15.438Z,3.50
2019-04-21T18:06:50.077Z,3.25
2019-04-21T18:09:31.571Z,3.77
2019-04-21T18:11:56.821Z,3.77
2019-04-21T18:14:02.042Z,3.50
2019-04-21T18:16:37.924Z,3.72
2019-04-21T18:18:59.617Z,4.30
2019-04-21T18:21:34.674Z,4.70
2019-04-21T18:24:10.840Z,4.40
2019-04-21T18:26:41.780Z,4.45
2019-04-21T18:29:01.263Z,4.90
2019-04-21T18:31:33.796Z,5.05
2019-04-21T18:34:31.025Z,3.25
2019-04-21T18:37:06.676Z,3.67
2019-04-21T18:42:34.127Z,4.40
2019-04-21T18:48:11.232Z,3.65
2019-04-21T18:50:58.454Z,4.62
2019-04-21T18:53:52.157Z,4.15
2019-04-21T18:56:11.253Z,3.90
2019-04-21T18:58:38.127Z,4.40
2019-04-21T19:01:11.832Z,4.78
2019-04-21T19:03:39.911Z,3.70
2019-04-21T19:06:10.723Z,4.72
2019-04-21T19:09:01.092Z,4.50
2019-04-21T19:11:25.089Z,4.58
2019-04-21T19:14:20.791Z,4.72
2019-04-21T19:16:49.753Z,4.70
2019-04-21T19:19:38.269Z,4.75
2019-04-21T19:21:28.010Z,5.05
2019-04-21T19:24:10.513Z,5.50
2019-04-21T19:26:40.469Z,5.25
2019-04-21T19:29:03.528Z,5.40
2019-04-21T19:31:32.303Z,5.08
2019-04-21T19:33:51.651Z,5.17
2019-04-21T19:36:10.844Z,6.28
2019-04-21T19:38:48.905Z,6.85
2019-04-21T19:41:25.663Z,9.65
2019-04-21T19:43:57.567Z,8.13
2019-04-21T19:46:22.725Z,5.95
2019-04-21T19:49:05.509Z,6.53
2019-04-21T19:51:20.867Z,7.00
2019-04-21T19:53:44.389Z,8.00
2019-04-21T19:56:00.405Z,8.13
2019-04-21T19:58:33.848Z,11.68
2019-04-21T20:01:03.470Z,10.35
2019-04-21T20:03:32.468Z,15.50
2019-04-21T20:06:10.455Z,17.10
2019-04-21T20:08:44.642Z,16.87
2019-04-21T20:11:19.124Z,15.48
2019-04-21T20:14:13.757Z,11.08
2019-04-21T20:16:23.051Z,9.53
2019-04-21T20:18:38.849Z,7.15
2019-04-21T20:20:58.660Z,5.95
2019-04-21T20:23:34.823Z,5.47
2019-04-21T20:26:02.263Z,5.00
2019-04-21T20:28:36.955Z,4.95
2019-04-21T20:34:06.279Z,4.58
2019-04-21T20:36:35.306Z,5.47
2019-04-21T20:38:55.052Z,4.33
2019-04-21T20:41:32.544Z,4.57
2019-04-21T20:44:11.861Z,5.25
2019-04-21T20:46:39.840Z,5.65
2019-04-21T20:49:02.793Z,5.15
2019-04-21T20:51:37.658Z,8.15
2019-04-21T20:54:02.926Z,6.15
2019-04-21T20:56:27.362Z,6.90
2019-04-21T20:58:59.993Z,6.80
2019-04-21T21:01:43.417Z,6.65
2019-04-21T21:04:00.363Z,5.40
2019-04-21T21:06:26.118Z,6.35
2019-04-21T21:08:56.871Z,6.22
2019-04-21T21:11:27.770Z,6.03
2019-04-21T21:13:57.317Z,6.65
2019-04-21T21:16:35.680Z,6.50
2019-04-21T21:19:08.439Z,6.85
2019-04-21T21:21:22.997Z,7.95
2019-04-21T21:23:48.024Z,9.08
2019-04-21T21:26:21.799Z,10.45
2019-04-21T21:28:40.325Z,9.68
2019-04-21T21:31:12.995Z,10.60
2019-04-21T21:33:50.739Z,9.53
2019-04-21T21:36:13.469Z,8.70
2019-04-21T21:38:45.855Z,6.78
2019-04-21T21:41:03.768Z,6.27
2019-04-21T21:43:24.771Z,5.95
2019-04-21T21:45:55.646Z,5.75
2019-04-21T21:48:32.337Z,4.78
2019-04-21T21:50:56.691Z,4.83
2019-04-21T21:53:21.455Z,5.10
2019-04-21T21:55:46.708Z,5.90
2019-04-21T21:58:15.644Z,4.90
2019-04-21T22:00:48.625Z,4.80
2019-04-21T22:03:19.647Z,5.35
2019-04-21T22:05:48.258Z,4.42
2019-04-21T22:08:10.334Z,4.53
2019-04-21T22:10:41.572Z,4.62
2019-04-21T22:13:15.914Z,4.60
2019-04-21T22:15:39.612Z,5.45
2019-04-21T22:18:25.826Z,4.62
2019-04-21T22:20:53.757Z,4.80
2019-04-21T22:23:11.308Z,5.25
2019-04-21T22:25:37.988Z,4.90
2019-04-21T22:28:03.909Z,4.95
2019-04-21T22:30:37.062Z,4.53
2019-04-21T22:33:04.755Z,4.28
2019-04-21T22:35:37.859Z,4.83
2019-04-21T22:38:12.483Z,4.87
2019-04-21T22:40:42.965Z,4.90
2019-04-21T22:43:04.643Z,4.60
2019-04-21T22:45:23.167Z,4.60
2019-04-21T22:47:52.109Z,5.10
2019-04-21T22:50:22.555Z,4.47
2019-04-21T22:52:56.677Z,4.60
2019-04-21T22:55:22.639Z,4.45
2019-04-21T22:57:51.789Z,5.22
2019-04-21T23:00:18.639Z,4.72
2019-04-21T23:02:46.912Z,4.60
2019-04-21T23:05:16.843Z,4.65
2019-04-21T23:07:52.660Z,4.70
2019-04-21T23:10:11.557Z,4.62
2019-04-21T23:12:43.773Z,4.33
2019-04-21T23:15:16.572Z,4.50
2019-04-21T23:17:59.497Z,4.75
2019-04-21T23:20:26.603Z,4.83
2019-04-21T23:23:02.007Z,4.50
2019-04-21T23:25:24.564Z,4.70
2019-04-21T23:27:55.536Z,4.70
2019-04-21T23:30:26.191Z,4.50
2019-04-21T23:32:42.189Z,4.53
2019-04-21T23:35:09.057Z,4.70
2019-04-21T23:37:34.149Z,5.00
2019-04-21T23:40:01.045Z,5.35
2019-04-21T23:42:34.559Z,5.20
2019-04-21T23:44:59.627Z,4.42
2019-04-21T23:47:39.852Z,4.53
2019-04-21T23:50:04.937Z,5.10
2019-04-21T23:52:23.783Z,4.75
2019-04-21T23:54:53.443Z,5.08
2019-04-21T23:57:30.527Z,4.95
2019-04-21T23:59:55.103Z,5.42
